Data for 05/24/2009

Time Sea-Level Adjusted Pressure Absolute Pressure Temperature Relative Humidity Dew Point   
(mb) (inHg) (mb) (inHg) (C) (F) (%) (C) (F)
00:05 1016 30 845 24.95 14.8 58.6 55 6 42.8
00:10 1016 30 845 24.95 14.6 58.4 59 6.9 44.4
00:15 1016 30 845 24.95 14.1 57.5 60 6.5 43.8
00:20 1016 30 845 24.95 13.8 56.8 60 6.3 43.4
00:25 1016 30 845 24.95 13.8 56.8 61 6.5 43.7
00:30 1016 30 845 24.95 13.9 57.1 60 6.4 43.5
00:35 1016 30 845 24.95 13.9 57.1 61 6.6 43.8
00:40 1016 30 845 24.95 14 57.2 61 6.6 43.9
00:45 1016 30 845 24.95 14.1 57.4 61 6.9 44.4
00:50 1016 30 845 24.95 14.3 57.7 61 6.9 44.4
00:55 1016 30 845 24.95 14.5 58 62 7.2 45
01:00 1016 30 845 24.95 14.7 58.5 61 7.4 45.3
01:05 1016 30 845 24.95 15 59 61 7.6 45.7
01:10 1016 30 845 24.95 15.2 59.3 61 7.8 46
01:15 1016 30 845 24.95 15.2 59.4 61 7.8 46.1
01:20 1016 30 845 24.95 15.2 59.4 61 7.7 45.9
01:25 1016 30 845 24.95 15.2 59.4 60 7.6 45.7
01:30 1016 30 845 24.95 15.3 59.5 60 7.6 45.7
01:35 1016 30 845 24.95 15.3 59.6 60 7.7 45.8
01:40 1016 30 845 24.95 15.3 59.6 60 7.7 45.9
01:45 1016 30 845 24.95 15.4 59.7 60 7.8 46
01:50 1016 30 845 24.95 15.3 59.6 61 7.8 46
01:55 1016 30 845 24.95 15.3 59.5 61 7.8 46.1
02:00 1016 30 845 24.95 15.3 59.6 61 8 46.3
02:05 1016 30 845 24.95 15.4 59.7 61 8 46.4
02:10 1016 30 845 24.95 15.4 59.8 61 8.1 46.5
02:15 1016 30 845 24.95 15.4 59.7 62 8.1 46.6
02:20 1016 30 845 24.95 15.3 59.6 62 8.1 46.5
02:25 1015 29.97 845 24.95 15.4 59.6 61 8.1 46.5
02:30 1015 29.97 845 24.95 15.3 59.5 62 8.1 46.5
02:35 1015 29.97 845 24.95 15.2 59.3 62 8 46.5
02:40 1015 29.97 845 24.95 15.1 59.2 63 8.1 46.6
02:45 1015 29.97 845 24.95 14.9 58.8 63 8.1 46.6
02:50 1015 29.97 845 24.95 14.8 58.6 64 8.1 46.5
02:55 1015 29.97 845 24.95 14.8 58.6 64 8 46.5
03:00 1015 29.97 845 24.95 14.8 58.6 64 8 46.4
03:05 1015 29.97 844 24.92 14.8 58.6 64 8.1 46.6
03:10 1015 29.97 844 24.92 14.6 58.3 65 8.2 46.8
03:15 1015 29.97 844 24.92 14.3 57.7 66 8.1 46.6
03:20 1015 29.97 844 24.92 14.3 57.7 66 8.1 46.5
03:25 1015 29.97 844 24.92 14.2 57.5 67 8.1 46.6
03:30 1015 29.97 844 24.92 14.1 57.4 67 8.1 46.6
03:35 1015 29.97 844 24.92 14 57.1 68 8.1 46.6
03:40 1015 29.97 844 24.92 13.7 56.7 69 8.1 46.6
03:45 1015 29.97 844 24.92 13.5 56.2 70 8.1 46.6
03:50 1015 29.97 844 24.92 13.2 55.8 71 8 46.4
03:55 1015 29.97 844 24.92 13.1 55.5 71 7.9 46.3
04:00 1015 29.97 844 24.92 13.1 55.6 70 7.8 46.1
04:05 1015 29.97 844 24.92 13.2 55.7 70 7.9 46.3
04:10 1015 29.97 844 24.92 13.1 55.6 70 7.9 46.2
04:15 1015 29.97 844 24.92 13.1 55.6 71 7.9 46.3
04:20 1015 29.97 844 24.92 13 55.4 71 7.9 46.2
04:25 1015 29.97 844 24.92 12.9 55.3 71 7.9 46.1
04:30 1015 29.97 844 24.92 12.9 55.2 71 7.8 46
04:35 1015 29.97 844 24.92 12.8 55.1 70 7.6 45.7
04:40 1015 29.97 844 24.92 12.4 54.2 69 7 44.5
04:45 1015 29.97 844 24.92 12.2 53.9 64 5.6 42.1
04:50 1015 29.97 844 24.92 11.4 52.4 63 4.6 40.4
04:55 1015 29.97 844 24.92 11.1 52 63 4.4 40
05:00 1015 29.97 844 24.92 11.2 52.1 63 4.5 40
05:05 1015 29.97 844 24.92 11.4 52.4 64 4.9 40.8
05:10 1015 29.97 844 24.92 11.6 52.9 64 5 41
05:15 1015 29.97 844 24.92 11.7 53.1 60 4.2 39.6
05:20 1015 29.97 844 24.92 11.7 53 59 4 39.2
05:25 1015 29.97 844 24.92 11.6 52.9 59 4 39.3
05:30 1015 29.97 844 24.92 11.4 52.6 61 4.2 39.5
05:35 1015 29.97 844 24.92 11 51.8 63 4.2 39.6
05:40 1015 29.97 844 24.92 10.5 50.8 64 4 39.2
05:45 1015 29.97 844 24.92 10.1 50.3 65 3.8 38.9
05:50 1015 29.97 844 24.92 10.2 50.3 65 3.9 39
05:55 1015 29.97 845 24.95 10.2 50.4 65 4 39.2
06:00 1015 29.97 845 24.95 10.2 50.4 65 4 39.2
06:05 1015 29.97 845 24.95 10.1 50.2 64 3.7 38.7
06:10 1015 29.97 844 24.92 10.4 50.7 63 3.6 38.4
06:15 1015 29.97 844 24.92 10.9 51.7 62 3.9 39
06:20 1015 29.97 844 24.92 10.7 51.3 64 4.3 39.8
06:25 1015 29.97 844 24.92 10.2 50.4 67 4.3 39.7
06:30 1015 29.97 844 24.92 10.1 50.1 67 4.3 39.7
06:35 1015 29.97 844 24.92 10 50 67 4.3 39.7
06:40 1015 29.97 844 24.92 9.9 49.9 68 4.3 39.7
06:45 1015 29.97 844 24.92 10 49.9 68 4.3 39.8
06:50 1015 29.97 844 24.92 10.1 50.1 67 4.3 39.8
06:55 1015 29.97 844 24.92 10.3 50.5 66 4.3 39.8
07:00 1015 29.97 844 24.92 10.6 51 66 4.5 40
07:05 1015 29.97 844 24.92 11 51.8 64 4.4 40
07:10 1015 29.97 844 24.92 11.5 52.6 64 4.9 40.8
07:15 1015 29.97 844 24.92 11.7 53 63 5 41
07:20 1015 29.97 844 24.92 12 53.5 62 5 41.1
07:25 1015 29.97 844 24.92 12.3 54.1 61 5 41.1
07:30 1015 29.97 844 24.92 12.5 54.5 61 5.1 41.2
07:35 1015 29.97 844 24.92 12.5 54.5 62 5.3 41.6
07:40 1015 29.97 844 24.92 12.5 54.5 61 5.2 41.3
07:45 1015 29.97 844 24.92 13.2 55.8 58 5.3 41.5
07:50 1015 29.97 844 24.92 13.8 56.9 57 5.6 42
07:55 1015 29.97 844 24.92 14 57.2 56 5.5 42
08:00 1015 29.97 845 24.95 14.3 57.7 57 5.9 42.6
08:05 1015 29.97 845 24.95 14.3 57.7 57 6 42.7
08:10 1015 29.97 845 24.95 14.6 58.3 56 5.9 42.7
08:15 1015 29.97 845 24.95 14.5 58.2 57 6.1 42.9
08:20 1015 29.97 845 24.95 14.7 58.5 55 5.8 42.4
08:25 1015 29.97 845 24.95 15.2 59.3 53 5.9 42.5
08:30 1015 29.97 845 24.95 15.5 59.9 52 5.8 42.5
08:35 1015 29.97 845 24.95 15.9 60.6 49 5.2 41.4
08:40 1015 29.97 845 24.95 16.1 61.1 50 5.7 42.3
08:45 1015 29.97 845 24.95 15.8 60.5 49 5.3 41.6
08:50 1015 29.97 844 24.92 16 60.8 50 5.7 42.2
08:55 1015 29.97 844 24.92 15.7 60.2 50 5.3 41.5
09:00 1015 29.97 844 24.92 16.1 61 48 5.1 41.1
09:05 1015 29.97 844 24.92 17 62.6 44 4.9 40.8
09:10 1015 29.97 844 24.92 17.5 63.4 46 5.7 42.2
09:15 1015 29.97 844 24.92 17.3 63.1 44 5.2 41.3
09:20 1015 29.97 844 24.92 17.6 63.6 43 4.9 40.8
09:25 1015 29.97 844 24.92 17.9 64.2 43 5.4 41.7
09:30 1015 29.97 844 24.92 18.2 64.7 42 5.3 41.5
09:35 1015 29.97 844 24.92 18 64.4 44 5.6 42.1
09:40 1015 29.97 844 24.92 17.2 63 46 5.5 41.9
09:45 1015 29.97 844 24.92 17.6 63.7 44 5.5 41.9
09:50 1015 29.97 844 24.92 18 64.5 45 6.1 43
09:55 1015 29.97 844 24.92 17.2 63 46 5.7 42.3
10:00 1015 29.97 844 24.92 17.1 62.8 45 5.3 41.6
10:05 1015 29.97 844 24.92 17.7 63.8 46 6 42.9
10:10 1015 29.97 844 24.92 18.4 65.1 44 6 42.9
10:15 1015 29.97 844 24.92 18.6 65.4 43 6 42.9
10:20 1015 29.97 844 24.92 18.9 66.1 41 5.6 42.1
10:25 1015 29.97 844 24.92 18.7 65.6 42 5.5 41.9
10:30 1015 29.97 844 24.92 18.9 66 42 5.7 42.3
10:35 1015 29.97 844 24.92 18.5 65.3 44 6.1 43
10:40 1015 29.97 844 24.92 18.9 66 43 6.3 43.3
10:45 1015 29.97 844 24.92 19 66.2 42 6.1 42.9
10:50 1015 29.97 844 24.92 19.5 67.2 42 6.5 43.7
10:55 1015 29.97 844 24.92 19.1 66.5 42 6.2 43.2
11:00 1015 29.97 844 24.92 19.9 67.7 41 6.4 43.5
11:05 1015 29.97 844 24.92 19.8 67.6 42 6.7 44.1
11:10 1015 29.97 844 24.92 18.7 65.6 42 5.8 42.4
11:15 1015 29.97 844 24.92 18.7 65.7 44 6.5 43.6
11:20 1015 29.97 844 24.92 19.1 66.3 41 5.8 42.4
11:25 1015 29.97 844 24.92 19.6 67.3 41 6 42.8
11:30 1015 29.97 844 24.92 20.5 68.8 39 6 42.8
11:35 1015 29.97 844 24.92 20.9 69.5 40 6.9 44.3
11:40 1015 29.97 844 24.92 20.7 69.2 39 6.5 43.8
11:45 1014 29.94 844 24.92 20.8 69.5 37 5.9 42.6
11:50 1014 29.94 844 24.92 20.7 69.2 39 6.4 43.5
11:55 1014 29.94 844 24.92 20.3 68.6 40 6.4 43.4
12:00 1014 29.94 844 24.92 20 68 40 6.1 43
12:05 1014 29.94 844 24.92 20.5 68.9 38 5.8 42.4
12:10 1014 29.94 844 24.92 20.7 69.2 39 6.3 43.4
12:15 1014 29.94 843 24.89 20.1 68.1 41 6.7 44.1
12:20 1014 29.94 843 24.89 20.2 68.3 42 6.9 44.5
12:25 1014 29.94 843 24.89 20.1 68.1 41 6.5 43.6
12:30 1014 29.94 843 24.89 20.3 68.6 41 6.9 44.5
12:35 1014 29.94 843 24.89 19.6 67.3 43 7 44.6
12:40 1014 29.94 843 24.89 19.3 66.8 43 6.6 43.9
12:45 1014 29.94 843 24.89 19.1 66.4 42 6.2 43.1
12:50 1014 29.94 843 24.89 19.4 67 42 6.5 43.7
12:55 1014 29.94 843 24.89 20.1 68.1 40 6.3 43.4
13:00 1014 29.94 843 24.89 20.5 68.9 37 5.6 42.1
13:05 1014 29.94 843 24.89 19.6 67.3 40 5.8 42.5
13:10 1014 29.94 843 24.89 21 69.8 36 5.4 41.7
13:15 1014 29.94 843 24.89 21.6 71 35 5.6 42.1
13:20 1014 29.94 843 24.89 20.9 69.7 36 5.5 41.9
13:25 1014 29.94 843 24.89 20.1 68.2 42 7 44.6
13:30 1014 29.94 843 24.89 19.7 67.4 41 6.2 43.2
13:35 1014 29.94 843 24.89 20.3 68.5 41 6.8 44.2
13:40 1014 29.94 843 24.89 20.1 68.2 42 7 44.6
13:45 1014 29.94 843 24.89 19.6 67.3 42 6.5 43.7
13:50 1014 29.94 843 24.89 19.6 67.3 43 6.7 44.1
13:55 1014 29.94 843 24.89 19.9 67.8 41 6.3 43.4
14:00 1014 29.94 843 24.89 20 68 42 6.9 44.5
14:05 1014 29.94 843 24.89 20.5 68.8 38 5.9 42.5
14:10 1014 29.94 843 24.89 20.8 69.5 37 6 42.7
14:15 1014 29.94 843 24.89 20.5 68.8 38 5.7 42.2
14:20 1014 29.94 843 24.89 19.8 67.6 38 5.1 41.1
14:25 1014 29.94 843 24.89 19.9 67.8 39 5.8 42.5
14:30 1014 29.94 843 24.89 19.7 67.4 39 5.5 41.9
14:35 1014 29.94 843 24.89 20.1 68.1 38 5.3 41.6
14:40 1014 29.94 843 24.89 20.6 69.1 37 5.5 42
14:45 1014 29.94 843 24.89 20.6 69.1 37 5.4 41.7
14:50 1014 29.94 843 24.89 20.1 68.1 39 5.9 42.6
14:55 1014 29.94 843 24.89 19.8 67.7 43 7.2 44.9
15:00 1014 29.94 843 24.89 19.7 67.5 42 6.6 43.9
15:05 1014 29.94 843 24.89 19.3 66.8 45 7.2 45
15:10 1014 29.94 843 24.89 18.6 65.6 47 7.3 45.2
15:15 1014 29.94 843 24.89 18.3 65 48 7.2 45
15:20 1014 29.94 843 24.89 18 64.5 50 7.7 45.8
15:25 1014 29.94 843 24.89 17.6 63.7 51 7.4 45.3
15:30 1014 29.94 843 24.89 17.1 62.9 52 7.4 45.3
15:35 1014 29.94 843 24.89 16.7 62.1 53 7.2 45
15:40 1014 29.94 843 24.89 16.4 61.6 54 7.3 45.1
15:45 1014 29.94 843 24.89 16.2 61.2 55 7.2 44.9
15:50 1014 29.94 844 24.92 15.6 60 56 7 44.5
15:55 1015 29.97 844 24.92 15.1 59.2 57 6.8 44.3
16:00 1015 29.97 844 24.92 14.9 58.8 58 6.7 44.1
16:05 1015 29.97 844 24.92 14.6 58.3 58 6.6 43.9
16:10 1015 29.97 844 24.92 14.6 58.2 58 6.4 43.6
16:15 1015 29.97 844 24.92 14.6 58.2 62 7.4 45.3
16:20 1015 29.97 844 24.92 14 57.2 66 7.9 46.1
16:25 1015 29.97 845 24.95 13.6 56.4 69 7.9 46.3
16:30 1015 29.97 845 24.95 13.2 55.8 70 7.8 46.1
16:35 1016 30 845 24.95 12.9 55.1 74 8.4 47.2
16:40 1016 30 845 24.95 12.3 54.2 77 8.5 47.2
16:45 1016 30 845 24.95 11.6 52.9 81 8.4 47.1
16:50 1016 30 845 24.95 11.2 52.2 84 8.5 47.4
16:55 1016 30 845 24.95 11 51.8 87 9 48.2
17:00 1016 30 845 24.95 10.7 51.3 89 9 48.2
17:05 1016 30 846 24.98 10.4 50.8 91 9 48.2
17:10 1016 30 846 24.98 10.3 50.5 93 9.2 48.5
17:15 1016 30 846 24.98 10.2 50.4 93 9.2 48.6
17:20 1017 30.03 846 24.98 10.2 50.4 93 9.1 48.3
17:25 1017 30.03 846 24.98 10.3 50.6 92 9.1 48.4
17:30 1017 30.03 846 24.98 10.3 50.5 93 9.1 48.4
17:35 1017 30.03 846 24.98 10.4 50.8 92 9.2 48.5
17:40 1017 30.03 846 24.98 10.4 50.8 91 9 48.2
17:45 1017 30.03 846 24.98 10.4 50.8 90 8.9 48
17:50 1017 30.03 846 24.98 10.3 50.5 91 9 48.1
17:55 1017 30.03 846 24.98 10.2 50.4 93 9.1 48.4
18:00 1017 30.03 846 24.98 10.2 50.4 93 9.1 48.4
18:05 1017 30.03 846 24.98 10.2 50.4 93 9.1 48.3
18:10 1017 30.03 846 24.98 10.3 50.6 92 9.1 48.4
18:15 1017 30.03 846 24.98 10.3 50.5 92 9.1 48.3
18:20 1017 30.03 846 24.98 10.4 50.7 92 9.1 48.4
18:25 1017 30.03 846 24.98 10.6 51 89 8.8 47.8
18:30 1017 30.03 846 24.98 10.7 51.2 89 8.9 48
18:35 1017 30.03 846 24.98 10.7 51.3 89 9 48.1
18:40 1017 30.03 846 24.98 10.8 51.4 90 9.2 48.5
18:45 1017 30.03 846 24.98 10.9 51.6 88 9 48.2
18:50 1017 30.03 846 24.98 10.8 51.4 88 8.8 47.9
18:55 1017 30.03 846 24.98 10.8 51.4 89 9 48.2
19:00 1017 30.03 846 24.98 10.9 51.5 87 8.9 47.9
19:05 1017 30.03 846 24.98 10.8 51.4 87 8.8 47.8
19:10 1017 30.03 846 24.98 10.7 51.3 89 8.9 48.1
19:15 1017 30.03 846 24.98 10.6 51 88 8.7 47.6
19:20 1017 30.03 846 24.98 10.4 50.7 88 8.6 47.4
19:25 1017 30.03 846 24.98 10.4 50.8 88 8.6 47.5
19:30 1017 30.03 846 24.98 10.5 50.8 90 8.8 47.9
19:35 1017 30.03 846 24.98 10.4 50.7 90 8.9 48
19:40 1017 30.03 846 24.98 10.4 50.6 89 8.6 47.5
19:45 1017 30.03 846 24.98 10.3 50.6 89 8.6 47.4
19:50 1017 30.03 846 24.98 10.3 50.6 89 8.7 47.6
19:55 1017 30.03 846 24.98 10.3 50.5 89 8.5 47.4
20:00 1017 30.03 846 24.98 10.4 50.7 87 8.4 47.1
20:05 1017 30.03 846 24.98 10.4 50.8 87 8.4 47.1
20:10 1017 30.03 846 24.98 10.4 50.7 88 8.4 47.2
20:15 1017 30.03 846 24.98 10.4 50.6 87 8.4 47.1
20:20 1017 30.03 846 24.98 10.4 50.6 87 8.3 46.9
20:25 1017 30.03 846 24.98 10.5 50.8 87 8.5 47.2
20:30 1017 30.03 846 24.98 10.5 50.9 85 8.2 46.7
20:35 1017 30.03 846 24.98 10.7 51.2 85 8.2 46.8
20:40 1017 30.03 846 24.98 10.7 51.3 84 8.1 46.7
20:45 1017 30.03 846 24.98 10.8 51.4 84 8.1 46.6
20:50 1017 30.03 846 24.98 10.8 51.5 84 8.3 46.9
20:55 1017 30.03 846 24.98 10.8 51.5 83 8.1 46.6
21:00 1017 30.03 846 24.98 10.6 51.2 85 8.2 46.7
21:05 1017 30.03 846 24.98 10.6 51 85 8.2 46.7
21:10 1017 30.03 847 25.01 10.5 50.9 85 8 46.5
21:15 1017 30.03 847 25.01 10.4 50.7 85 7.9 46.2
21:20 1017 30.03 847 25.01 10.3 50.5 85 7.9 46.3
21:25 1017 30.03 847 25.01 10.2 50.4 84 7.7 45.9
21:30 1017 30.03 847 25.01 10.3 50.5 83 7.6 45.6
21:35 1017 30.03 847 25.01 10.4 50.7 83 7.6 45.6
21:40 1017 30.03 847 25.01 10.4 50.8 81 7.4 45.3
21:45 1018 30.06 847 25.01 10.4 50.7 81 7.3 45.1
21:50 1018 30.06 847 25.01 10.4 50.7 81 7.3 45.2
21:55 1018 30.06 847 25.01 10.4 50.7 81 7.3 45.1
22:00 1018 30.06 847 25.01 10.4 50.7 81 7.2 45
22:05 1018 30.06 847 25.01 10.4 50.8 80 7.2 45
22:10 1018 30.06 847 25.01 10.4 50.8 81 7.3 45.1
22:15 1018 30.06 847 25.01 10.5 50.8 80 7.2 45
22:20 1018 30.06 847 25.01 10.5 51 81 7.3 45.2
22:25 1018 30.06 847 25.01 10.6 51.1 80 7.3 45.1
22:30 1018 30.06 847 25.01 10.7 51.3 79 7.3 45.1
22:35 1018 30.06 847 25.01 10.7 51.2 79 7.3 45.1
22:40 1018 30.06 847 25.01 10.6 51.1 79 7.2 45
22:45 1018 30.06 847 25.01 10.6 51.1 80 7.3 45.2
22:50 1018 30.06 847 25.01 10.6 51.1 80 7.3 45.2
22:55 1018 30.06 847 25.01 10.7 51.2 79 7.2 45
23:00 1018 30.06 847 25.01 10.7 51.2 80 7.3 45.2
23:05 1018 30.06 847 25.01 10.7 51.2 80 7.3 45.2
23:10 1018 30.06 847 25.01 10.6 51.1 80 7.4 45.3
23:15 1018 30.06 847 25.01 10.6 51.2 80 7.4 45.3
23:20 1018 30.06 847 25.01 10.6 51.1 80 7.3 45.2
23:25 1018 30.06 847 25.01 10.6 51 81 7.5 45.4
23:30 1018 30.06 847 25.01 10.5 50.9 81 7.5 45.4
23:35 1018 30.06 847 25.01 10.4 50.7 82 7.4 45.4
23:40 1018 30.06 847 25.01 10.4 50.7 81 7.4 45.2
23:45 1018 30.06 847 25.01 10.3 50.6 82 7.4 45.2
23:50 1018 30.06 847 25.01 10.3 50.5 81 7.2 45
23:55 1018 30.06 847 25.01 10.2 50.4 81 7.1 44.8
24:00 1018 30.06 847 25.01 10.1 50.3 81 7.1 44.7